Time;durP1;ratioP1;P1;durP2;ratioP2;P2;SDS_P1;SDS_P2;PMS_P1;PMS_P2;Temp;Humidity;BMP_temperature;BMP_pressure;BME280_temperature;BME280_humidity;BME280_pressure;Samples;Min_cycle;Max_cycle;Signal;HPM_P1;HPM_P2
2023/10/24 00:01:34;;;;;;;4.05;1.80;;;;;;;14.84;75.53;99379.00;10315393;28;20038;-66
2023/10/24 00:06:36;;;;;;;4.85;1.70;;;;;;;14.87;75.48;99381.25;10313546;28;20077;-66
2023/10/24 00:11:37;;;;;;;6.78;2.28;;;;;;;14.84;75.74;99360.06;10316159;28;20081;-66
2023/10/24 00:16:39;;;;;;;4.95;2.63;;;;;;;14.86;75.61;99370.66;10315146;28;20038;-66
2023/10/24 00:21:41;;;;;;;4.38;2.25;;;;;;;14.94;75.40;99369.50;10317766;28;20505;-66
2023/10/24 00:26:42;;;;;;;8.20;2.30;;;;;;;15.00;75.23;99355.88;10314500;28;20042;-66
2023/10/24 00:31:44;;;;;;;5.85;3.65;;;;;;;15.04;75.12;99350.84;10315789;28;20046;-66
2023/10/24 00:36:46;;;;;;;2.80;2.13;;;;;;;15.07;75.08;99358.50;10313954;28;20043;-66
2023/10/24 00:41:47;;;;;;;4.20;2.20;;;;;;;15.09;75.13;99364.53;10290691;28;20121;-66
2023/10/24 00:46:49;;;;;;;6.40;2.33;;;;;;;15.06;75.12;99378.50;10316777;28;20466;-66
2023/10/24 00:51:53;;;;;;;2.88;2.55;;;;;;;15.01;75.26;99389.19;10337009;28;20042;-66
2023/10/24 00:56:55;;;;;;;4.20;2.05;;;;;;;15.04;75.20;99384.13;10321171;28;20078;-66
2023/10/24 01:01:58;;;;;;;3.92;2.28;;;;;;;15.08;75.06;99357.44;10321193;28;20076;-66
2023/10/24 01:06:59;;;;;;;4.95;2.22;;;;;;;15.04;75.19;99375.19;10321880;28;20050;-66
2023/10/24 01:12:01;;;;;;;4.13;2.47;;;;;;;15.02;75.22;99377.31;10335351;28;20042;-67
2023/10/24 01:17:13;;;;;;;3.13;1.88;;;;;;;15.00;75.17;99357.75;10322043;28;20039;-66
2023/10/24 01:22:15;;;;;;;5.93;2.47;;;;;;;15.04;75.03;99343.53;10320221;28;20157;-66
2023/10/24 01:27:19;;;;;;;6.53;2.15;;;;;;;15.07;74.89;99355.81;10317489;28;20045;-65
2023/10/24 01:32:29;;;;;;;4.88;2.83;;;;;;;15.06;75.25;99352.25;10334499;28;20145;-64
2023/10/24 01:37:31;;;;;;;4.47;2.80;;;;;;;15.05;75.17;99341.69;10318889;28;20057;-64
2023/10/24 01:42:32;;;;;;;4.88;2.97;;;;;;;15.00;75.36;99344.22;10276269;28;20042;-67
2023/10/24 01:47:34;;;;;;;4.65;2.92;;;;;;;14.99;75.44;99356.94;10303819;28;20034;-66
2023/10/24 01:52:35;;;;;;;7.07;2.97;;;;;;;15.01;75.36;99345.91;10321445;28;20157;-66
2023/10/24 01:57:37;;;;;;;6.65;3.83;;;;;;;15.00;75.39;99333.41;10316494;28;20044;-66
2023/10/24 02:02:41;;;;;;;6.68;4.00;;;;;;;15.02;75.28;99328.59;10333666;28;20035;-66
2023/10/24 02:07:43;;;;;;;9.10;4.38;;;;;;;14.98;75.48;99344.47;10336860;28;20042;-66
2023/10/24 02:12:45;;;;;;;8.02;5.47;;;;;;;14.96;75.67;99334.94;10319701;28;20445;-66
2023/10/24 02:17:47;;;;;;;5.80;4.20;;;;;;;14.99;75.51;99326.38;10319862;28;20816;-66
2023/10/24 02:22:51;;;;;;;10.40;5.25;;;;;;;15.04;75.37;99334.59;10318515;28;20153;-66
2023/10/24 02:27:53;;;;;;;9.70;4.55;;;;;;;15.06;74.89;99325.19;10320486;28;20054;-67
2023/10/24 02:33:00;;;;;;;10.30;5.43;;;;;;;15.06;75.07;99308.13;10329815;28;20050;-66
2023/10/24 02:38:02;;;;;;;9.10;4.45;;;;;;;15.06;75.01;99308.13;10317378;28;20038;-66
2023/10/24 02:43:03;;;;;;;8.00;4.63;;;;;;;15.09;74.96;99307.69;10330604;28;20520;-66
2023/10/24 02:48:05;;;;;;;7.90;4.47;;;;;;;15.16;74.58;99307.56;10317245;28;20039;-67
2023/10/24 02:53:07;;;;;;;8.65;4.90;;;;;;;15.18;74.79;99297.31;10315715;28;20046;-66
2023/10/24 02:58:08;;;;;;;10.45;6.00;;;;;;;15.19;74.53;99304.41;10330377;28;20050;-66
2023/10/24 03:03:10;;;;;;;8.77;5.10;;;;;;;15.19;74.71;99316.06;10317068;28;20049;-67
2023/10/24 03:08:12;;;;;;;8.25;4.97;;;;;;;15.21;74.55;99327.47;10332140;28;20078;-66
2023/10/24 03:13:13;;;;;;;7.97;4.47;;;;;;;15.24;74.40;99334.31;10314566;28;20046;-66
2023/10/24 03:18:15;;;;;;;12.45;5.13;;;;;;;15.21;74.49;99316.66;10316476;28;20046;-66
2023/10/24 03:23:17;;;;;;;6.30;4.95;;;;;;;15.13;74.80;99322.41;10328956;28;20532;-66
2023/10/24 03:28:18;;;;;;;11.38;5.47;;;;;;;15.13;74.73;99329.69;10317428;28;20053;-67
2023/10/24 03:33:20;;;;;;;8.27;5.18;;;;;;;15.07;75.08;99328.72;10315989;28;20104;-66
2023/10/24 03:38:21;;;;;;;11.75;6.18;;;;;;;14.95;75.42;99333.25;10315240;28;20133;-67
2023/10/24 03:43:23;;;;;;;16.25;6.07;;;;;;;15.00;75.27;99344.22;10313701;28;20058;-67
2023/10/24 03:48:25;;;;;;;11.90;5.32;;;;;;;15.00;75.19;99344.22;10317636;28;20042;-67
2023/10/24 03:53:27;;;;;;;8.18;4.90;;;;;;;15.09;74.76;99329.31;10315497;28;20053;-66
2023/10/24 03:58:29;;;;;;;9.30;4.75;;;;;;;15.10;74.68;99340.97;10313641;28;20691;-66
2023/10/24 04:03:31;;;;;;;6.55;4.57;;;;;;;15.07;74.81;99336.84;10316285;28;20112;-66
2023/10/24 04:08:33;;;;;;;7.93;4.88;;;;;;;15.06;74.75;99346.03;10315362;28;20070;-67
2023/10/24 04:13:34;;;;;;;9.25;5.38;;;;;;;15.04;74.65;99342.72;10313074;28;20042;-66
2023/10/24 04:18:36;;;;;;;11.75;5.30;;;;;;;15.08;74.54;99344.72;10312000;28;20144;-66
2023/10/24 04:23:38;;;;;;;7.50;4.93;;;;;;;15.13;74.25;99335.13;10317956;28;20324;-66
2023/10/24 04:28:40;;;;;;;10.95;5.43;;;;;;;15.18;73.90;99341.47;10321540;28;20038;-66
2023/10/24 04:33:44;;;;;;;8.23;4.63;;;;;;;15.17;74.54;99349.84;10320858;28;20046;-67
2023/10/24 04:38:45;;;;;;;13.13;5.22;;;;;;;15.08;74.36;99352.03;10322771;28;20423;-66
2023/10/24 04:43:47;;;;;;;10.88;5.75;;;;;;;14.96;74.79;99351.97;10321787;28;20144;-66
2023/10/24 04:48:48;;;;;;;10.70;5.63;;;;;;;15.02;74.67;99345.66;10320923;28;20378;-66
2023/10/24 04:53:50;;;;;;;11.45;5.45;;;;;;;15.00;74.44;99347.75;10317554;28;20116;-66
2023/10/24 04:58:54;;;;;;;8.80;5.07;;;;;;;14.96;74.65;99332.22;10319384;28;20580;-66
2023/10/24 05:03:56;;;;;;;8.45;5.05;;;;;;;14.98;74.31;99333.63;10322148;28;20053;-66
2023/10/24 05:08:59;;;;;;;11.70;6.10;;;;;;;14.98;74.36;99300.34;10320525;28;20048;-66
2023/10/24 05:14:01;;;;;;;12.93;6.00;;;;;;;14.88;74.86;99293.59;10321952;28;20049;-66
2023/10/24 05:19:02;;;;;;;8.70;5.35;;;;;;;14.90;74.44;99293.38;10320104;28;20360;-66
2023/10/24 05:24:04;;;;;;;11.60;5.68;;;;;;;14.90;74.41;99303.38;10319472;28;20062;-66
2023/10/24 05:29:06;;;;;;;13.27;6.13;;;;;;;14.86;74.62;99293.00;10330297;28;20034;-67
2023/10/24 05:34:08;;;;;;;9.63;6.28;;;;;;;14.83;74.59;99290.78;10318896;28;20038;-66
2023/10/24 05:39:09;;;;;;;9.18;5.95;;;;;;;14.89;74.48;99275.50;10320165;28;20595;-66
2023/10/24 05:44:11;;;;;;;9.13;5.43;;;;;;;14.97;74.34;99252.66;10319445;28;20133;-66
2023/10/24 05:49:12;;;;;;;10.48;6.45;;;;;;;14.99;74.12;99242.47;10321577;28;20050;-66
2023/10/24 05:54:14;;;;;;;12.07;6.20;;;;;;;14.95;74.13;99239.38;10335871;28;20105;-66
2023/10/24 05:59:16;;;;;;;17.52;8.27;;;;;;;14.93;74.13;99227.13;10319448;28;20397;-66
2023/10/24 06:04:19;;;;;;;13.88;6.18;;;;;;;14.95;74.03;99231.28;10321023;28;20054;-74
2023/10/24 06:09:20;;;;;;;9.30;5.97;;;;;;;14.96;73.80;99246.44;10321934;28;20050;-74
2023/10/24 06:14:22;;;;;;;10.73;6.50;;;;;;;14.94;73.91;99267.50;10322458;28;20093;-74
2023/10/24 06:19:23;;;;;;;11.68;6.70;;;;;;;14.84;74.17;99280.75;10320876;28;20061;-71
2023/10/24 06:24:25;;;;;;;18.15;7.88;;;;;;;14.81;74.20;99276.66;10317838;28;20101;-75
2023/10/24 06:29:29;;;;;;;15.35;7.93;;;;;;;14.90;74.11;99281.72;10318293;28;20130;-69
2023/10/24 06:34:31;;;;;;;13.05;7.65;;;;;;;14.95;74.40;99289.97;10318381;28;20050;-75
2023/10/24 06:39:33;;;;;;;11.68;8.23;;;;;;;14.98;74.03;99281.41;10318898;28;20057;-75
2023/10/24 06:44:35;;;;;;;15.38;6.50;;;;;;;15.01;74.11;99275.53;10322096;28;20051;-70
2023/10/24 06:49:36;;;;;;;12.35;5.85;;;;;;;15.02;74.14;99285.28;10317583;28;20057;-70
2023/10/24 06:54:39;;;;;;;9.32;6.95;;;;;;;15.02;74.23;99291.50;10319561;28;20046;-68
2023/10/24 06:59:42;;;;;;;11.02;6.57;;;;;;;15.06;74.14;99291.88;10324614;28;20043;-73
2023/10/24 07:04:43;;;;;;;13.00;7.45;;;;;;;15.08;74.14;99300.59;10321554;28;20046;-71
2023/10/24 07:09:45;;;;;;;13.00;6.50;;;;;;;15.10;74.01;99306.59;10312354;28;20057;-69
2023/10/24 07:14:51;;;;;;;12.57;7.05;;;;;;;15.05;74.19;99296.47;10313969;28;20058;-68
2023/10/24 07:19:53;;;;;;;14.67;7.27;;;;;;;15.07;74.48;99282.72;10314052;28;20134;-70
2023/10/24 07:24:55;;;;;;;14.13;7.18;;;;;;;15.14;73.99;99272.59;10311238;28;20117;-71
2023/10/24 07:29:56;;;;;;;11.85;5.90;;;;;;;15.18;74.04;99273.78;10311960;28;20050;-72
2023/10/24 07:34:58;;;;;;;11.82;6.93;;;;;;;15.21;74.27;99278.75;10313996;28;20054;-72
2023/10/24 07:39:59;;;;;;;14.40;7.13;;;;;;;15.18;74.24;99284.59;10288427;28;20061;-71
2023/10/24 07:45:01;;;;;;;17.95;8.30;;;;;;;15.15;74.46;99279.69;10312753;28;20046;-69
2023/10/24 07:50:03;;;;;;;15.65;8.63;;;;;;;15.02;74.91;99269.88;10312924;28;20054;-69
2023/10/24 07:55:05;;;;;;;15.90;9.63;;;;;;;14.99;74.98;99275.75;10312479;28;20053;-71
2023/10/24 08:00:07;;;;;;;16.52;8.57;;;;;;;14.86;75.72;99265.13;10313808;28;20042;-73
2023/10/24 08:05:09;;;;;;;17.17;8.75;;;;;;;14.85;75.73;99255.38;10314155;28;20046;-71
2023/10/24 08:10:10;;;;;;;18.90;10.60;;;;;;;14.78;75.83;99268.16;10310838;28;20050;-72
2023/10/24 08:15:12;;;;;;;25.90;12.45;;;;;;;14.82;75.83;99242.28;10309689;28;20112;-74
2023/10/24 08:20:13;;;;;;;20.65;11.63;;;;;;;14.79;76.01;99246.28;10314291;28;20050;-69
2023/10/24 08:25:15;;;;;;;21.38;11.88;;;;;;;14.76;75.94;99257.56;10309805;28;20386;-68
2023/10/24 08:30:16;;;;;;;20.23;10.60;;;;;;;14.79;75.83;99259.81;10315316;28;20053;-67
2023/10/24 08:35:18;;;;;;;18.98;10.45;;;;;;;14.74;75.78;99267.78;10313922;28;20050;-72
2023/10/24 08:40:20;;;;;;;21.02;11.05;;;;;;;14.80;75.90;99283.09;10310157;28;20062;-74
2023/10/24 08:45:23;;;;;;;21.98;10.60;;;;;;;14.75;76.06;99285.69;10312647;28;20051;-74
2023/10/24 08:50:24;;;;;;;17.10;10.70;;;;;;;14.75;76.32;99295.66;10313471;28;20509;-75
2023/10/24 08:55:28;;;;;;;15.63;9.98;;;;;;;14.60;76.77;99304.19;10312576;28;20130;-73
2023/10/24 09:00:30;;;;;;;21.08;10.32;;;;;;;14.54;77.00;99294.25;10328911;28;20046;-73
2023/10/24 09:05:32;;;;;;;22.35;11.48;;;;;;;14.67;76.57;99288.69;10313545;28;20688;-73
2023/10/24 09:10:34;;;;;;;17.58;9.90;;;;;;;14.64;76.87;99294.56;10318222;28;20502;-73
2023/10/24 09:15:36;;;;;;;16.75;10.07;;;;;;;14.59;77.08;99283.59;10316738;28;20050;-73
2023/10/24 09:20:37;;;;;;;21.80;11.13;;;;;;;14.48;77.40;99288.69;10316521;28;20101;-74
2023/10/24 09:25:39;;;;;;;21.98;12.30;;;;;;;14.40;77.70;99288.19;10310756;28;20399;-74
2023/10/24 09:30:40;;;;;;;22.60;12.15;;;;;;;14.41;77.87;99279.84;10330766;28;20529;-73
2023/10/24 09:35:42;;;;;;;22.17;12.20;;;;;;;14.48;78.00;99268.97;10319791;28;20046;-74
2023/10/24 09:40:53;;;;;;;20.13;10.50;;;;;;;14.30;78.49;99267.09;10322443;28;20070;-74
2023/10/24 09:45:56;;;;;;;23.63;11.82;;;;;;;14.31;78.56;99259.81;10322215;28;20054;-73
2023/10/24 09:50:57;;;;;;;21.13;11.15;;;;;;;14.28;78.82;99259.22;10294930;28;20035;-71
2023/10/24 09:56:00;;;;;;;23.17;12.05;;;;;;;14.40;78.49;99255.75;10317758;28;20172;-74
2023/10/24 10:01:03;;;;;;;19.33;11.10;;;;;;;14.44;78.49;99246.94;10296791;28;20061;-73
2023/10/24 10:06:08;;;;;;;20.83;10.93;;;;;;;14.47;78.44;99256.47;10307461;28;20057;-74
2023/10/24 10:11:10;;;;;;;19.23;11.60;;;;;;;14.52;78.35;99247.69;10319077;28;20061;-73
2023/10/24 10:16:27;;;;;;;21.02;11.48;;;;;;;14.52;78.69;99247.69;10339099;28;20062;-72
2023/10/24 10:21:53;;;;;;;22.83;11.87;;;;;;;14.47;78.92;99241.09;10317235;28;20039;-74
2023/10/24 10:27:13;;;;;;;18.27;10.88;;;;;;;14.55;78.67;99225.59;10308827;28;20493;-73
2023/10/24 10:32:29;;;;;;;15.70;9.73;;;;;;;14.59;78.69;99213.28;10312825;28;20050;-71
2023/10/24 10:38:03;;;;;;;17.67;10.50;;;;;;;14.65;78.77;99213.22;10320497;28;20050;-73
2023/10/24 10:43:05;;;;;;;18.85;10.57;;;;;;;14.63;78.83;99218.03;10293670;28;20042;-72
2023/10/24 10:48:07;;;;;;;16.27;9.95;;;;;;;14.66;78.74;99204.03;10285521;28;20038;-73
2023/10/24 10:53:33;;;;;;;19.10;9.90;;;;;;;14.77;78.64;99205.13;10269503;28;20043;-74
2023/10/24 10:59:07;;;;;;;18.35;10.05;;;;;;;14.79;78.68;99200.31;10308284;28;20054;-72
2023/10/24 11:04:15;;;;;;;15.43;9.32;;;;;;;14.94;78.50;99199.03;10289826;28;20058;-73
2023/10/24 11:09:20;;;;;;;19.33;9.52;;;;;;;14.79;78.86;99202.16;10316139;28;20053;-73
2023/10/24 11:14:22;;;;;;;18.15;9.88;;;;;;;14.84;78.77;99192.28;10317347;28;20141;-74
2023/10/24 11:19:24;;;;;;;13.70;9.38;;;;;;;14.83;78.71;99185.25;10314296;28;20196;-71
2023/10/24 11:24:26;;;;;;;17.42;9.48;;;;;;;14.91;78.48;99186.78;10314392;28;20042;-74
2023/10/24 11:29:43;;;;;;;16.77;10.38;;;;;;;15.00;78.28;99189.97;10288860;28;20137;-75
2023/10/24 11:34:45;;;;;;;16.45;9.60;;;;;;;15.00;78.08;99179.97;10317577;28;20038;-74
2023/10/24 11:39:49;;;;;;;15.68;9.25;;;;;;;15.07;78.49;99163.63;10333279;28;20149;-74
2023/10/24 11:44:52;;;;;;;14.90;8.55;;;;;;;15.07;78.41;99177.16;10314420;28;20054;-74
2023/10/24 11:49:53;;;;;;;13.75;8.18;;;;;;;14.98;78.58;99171.25;10330415;28;20101;-72
2023/10/24 11:54:55;;;;;;;13.75;8.65;;;;;;;14.91;79.00;99177.84;10289958;28;20054;-71
2023/10/24 11:59:57;;;;;;;16.92;8.57;;;;;;;14.90;78.95;99181.63;10292929;28;20121;-69
2023/10/24 12:05:00;;;;;;;12.77;8.00;;;;;;;15.00;78.62;99187.28;10300029;28;20042;-73
2023/10/24 12:10:09;;;;;;;12.02;7.93;;;;;;;14.99;78.81;99170.22;10312629;28;20046;-73
2023/10/24 12:15:11;;;;;;;13.57;8.07;;;;;;;15.03;78.56;99176.81;10317234;28;20050;-73
2023/10/24 12:20:12;;;;;;;11.13;6.72;;;;;;;15.08;78.50;99162.56;10332946;28;20034;-73
2023/10/24 12:25:17;;;;;;;13.75;7.53;;;;;;;15.06;78.80;99159.25;10318783;28;20061;-74
2023/10/24 12:30:19;;;;;;;13.55;8.63;;;;;;;15.11;78.82;99148.56;10299037;28;20054;-73
2023/10/24 12:35:21;;;;;;;14.30;8.30;;;;;;;15.22;78.66;99155.84;10305489;28;20043;-73
2023/10/24 12:40:22;;;;;;;12.05;8.18;;;;;;;15.23;78.87;99146.69;10319367;28;20054;-73
2023/10/24 12:45:24;;;;;;;13.82;7.85;;;;;;;15.24;78.92;99148.34;10314942;28;20054;-72
2023/10/24 12:50:25;;;;;;;13.48;7.85;;;;;;;15.30;78.83;99157.38;10339475;28;20046;-73
2023/10/24 12:55:27;;;;;;;9.90;6.43;;;;;;;15.26;78.88;99159.75;10323715;28;20046;-73
2023/10/24 13:00:29;;;;;;;11.48;6.40;;;;;;;15.20;78.95;99152.53;10297180;28;20069;-72
2023/10/24 13:05:31;;;;;;;9.75;5.95;;;;;;;15.17;78.90;99157.63;10301660;28;20049;-73
2023/10/24 13:10:33;;;;;;;10.45;6.20;;;;;;;15.25;78.72;99143.75;10323047;28;20093;-73
2023/10/24 13:15:34;;;;;;;12.05;6.78;;;;;;;15.30;78.64;99138.41;10322855;28;20485;-73
2023/10/24 13:20:36;;;;;;;10.70;5.95;;;;;;;15.44;78.29;99142.53;10280508;28;20070;-72
2023/10/24 13:25:38;;;;;;;8.05;6.10;;;;;;;15.54;77.89;99130.25;10322330;28;20080;-73
2023/10/24 13:30:40;;;;;;;10.25;6.38;;;;;;;15.50;78.07;99129.94;10331935;28;20121;-73
2023/10/24 13:35:52;;;;;;;6.90;4.93;;;;;;;15.51;77.72;99126.16;10326605;28;20070;-74
2023/10/24 13:40:56;;;;;;;9.88;4.95;;;;;;;15.33;78.32;99134.44;10322173;28;20054;-74
2023/10/24 13:45:58;;;;;;;8.93;4.68;;;;;;;15.23;78.86;99124.19;10323017;28;20130;-73
2023/10/24 13:50:59;;;;;;;7.53;5.50;;;;;;;15.38;78.44;99119.13;10324416;28;20507;-73
2023/10/24 13:56:02;;;;;;;10.73;5.93;;;;;;;15.38;78.33;99123.69;10324627;28;20382;-74
2023/10/24 14:01:04;;;;;;;13.05;6.15;;;;;;;15.35;78.42;99119.59;10322151;28;20070;-74
2023/10/24 14:06:06;;;;;;;6.95;4.90;;;;;;;15.48;77.79;99110.38;10322577;28;20328;-74
2023/10/24 14:11:08;;;;;;;11.57;5.00;;;;;;;15.45;77.92;99111.69;10334816;28;20041;-73
2023/10/24 14:16:09;;;;;;;11.02;5.65;;;;;;;15.55;77.88;99107.53;10320800;28;20097;-74
2023/10/24 14:21:11;;;;;;;9.45;6.03;;;;;;;15.65;78.09;99089.59;10319422;28;20150;-74
2023/10/24 14:26:12;;;;;;;9.20;6.32;;;;;;;15.73;78.12;99087.63;10320252;28;20064;-73
2023/10/24 14:31:14;;;;;;;9.27;5.93;;;;;;;15.79;78.00;99089.34;10320590;28;20135;-73
2023/10/24 14:36:16;;;;;;;6.63;4.95;;;;;;;15.67;77.97;99083.94;10330178;28;20125;-74
2023/10/24 14:41:19;;;;;;;10.32;5.78;;;;;;;15.59;78.26;99089.75;10317210;28;20065;-73
2023/10/24 14:46:21;;;;;;;7.07;5.55;;;;;;;15.59;78.15;99076.22;10302921;28;20062;-73
2023/10/24 14:51:22;;;;;;;11.02;6.55;;;;;;;15.66;77.85;99075.00;10306697;28;20382;-72
2023/10/24 14:56:24;;;;;;;11.50;6.25;;;;;;;15.71;77.54;99078.88;10321779;28;20046;-70
2023/10/24 15:01:26;;;;;;;12.45;6.93;;;;;;;15.43;78.80;99092.13;10329635;28;20050;-73
2023/10/24 15:06:27;;;;;;;12.65;6.80;;;;;;;15.09;79.66;99107.38;10314482;28;20057;-73
2023/10/24 15:11:29;;;;;;;17.35;8.07;;;;;;;14.87;80.16;99101.75;10320998;28;20031;-70
2023/10/24 15:16:32;;;;;;;13.57;7.18;;;;;;;15.06;79.99;99078.88;10317812;28;20053;-71
2023/10/24 15:21:34;;;;;;;15.60;6.93;;;;;;;15.20;79.51;99070.50;10293171;28;20054;-73
2023/10/24 15:26:39;;;;;;;14.23;5.90;;;;;;;15.09;79.38;99077.59;10298855;28;20141;-72
2023/10/24 15:31:41;;;;;;;17.95;9.95;;;;;;;14.87;80.33;99061.97;10316776;28;20046;-71
2023/10/24 15:36:44;;;;;;;15.82;8.45;;;;;;;14.84;80.47;99067.03;10321952;28;21084;-72
2023/10/24 15:41:46;;;;;;;12.25;7.50;;;;;;;14.98;79.63;99081.94;10333967;28;20073;-72
2023/10/24 15:46:49;;;;;;;15.35;8.80;;;;;;;14.94;79.79;99078.06;10319227;28;20112;-70
2023/10/24 15:51:51;;;;;;;16.85;10.32;;;;;;;15.02;79.39;99082.31;10307870;28;20455;-71
2023/10/24 15:56:54;;;;;;;18.10;10.02;;;;;;;15.10;79.60;99097.38;10314864;28;20097;-71
2023/10/24 16:01:57;;;;;;;21.27;11.05;;;;;;;15.14;79.43;99093.13;10318012;28;20069;-71
2023/10/24 16:07:01;;;;;;;26.38;12.25;;;;;;;15.14;79.60;99109.38;10317131;28;20089;-70
2023/10/24 16:12:03;;;;;;;21.23;10.68;;;;;;;14.89;80.23;99113.16;10314046;28;20046;-71
2023/10/24 16:17:04;;;;;;;22.95;12.35;;;;;;;14.87;80.31;99107.97;10317400;28;20078;-71
2023/10/24 16:22:10;;;;;;;23.35;11.98;;;;;;;15.04;79.81;99108.06;10298496;28;20042;-72
2023/10/24 16:27:11;;;;;;;15.38;9.07;;;;;;;14.89;79.96;99102.31;10326532;28;20373;-71
2023/10/24 16:32:13;;;;;;;9.55;5.82;;;;;;;14.64;80.48;99105.25;10325910;28;20050;-70
2023/10/24 16:37:14;;;;;;;7.07;4.15;;;;;;;14.44;80.72;99103.66;10329493;28;20058;-71
2023/10/24 16:42:17;;;;;;;7.07;2.53;;;;;;;14.28;80.53;99115.13;10326129;28;20050;-71
2023/10/24 16:47:19;;;;;;;3.88;2.10;;;;;;;14.01;80.50;99115.50;10316691;28;20042;-70
2023/10/24 16:52:20;;;;;;;5.85;1.25;;;;;;;13.89;80.08;99123.56;10320490;28;20097;-71
2023/10/24 16:57:22;;;;;;;9.35;5.03;;;;;;;13.75;80.14;99123.97;10322066;28;20053;-71
2023/10/24 17:02:23;;;;;;;2.30;1.27;;;;;;;13.58;80.05;99134.53;10320247;28;20050;-65
2023/10/24 17:07:24;;;;;;;1.08;0.80;;;;;;;13.43;80.06;99140.34;10334113;28;20050;-66
2023/10/24 17:12:26;;;;;;;1.15;0.60;;;;;;;13.27;80.14;99134.44;10316539;28;20073;-66
2023/10/24 17:17:27;;;;;;;0.98;0.60;;;;;;;13.13;80.37;99132.94;10319239;28;20054;-66
2023/10/24 17:22:32;;;;;;;2.95;0.40;;;;;;;13.07;79.89;99144.59;10318910;28;20064;-65
2023/10/24 17:27:33;;;;;;;0.85;0.47;;;;;;;13.02;79.72;99141.75;10294430;28;20054;-66
2023/10/24 17:32:36;;;;;;;1.00;0.55;;;;;;;13.03;79.45;99151.47;10289886;28;20418;-66
2023/10/24 17:37:38;;;;;;;1.17;0.55;;;;;;;12.92;79.39;99149.53;10310945;28;20046;-66
2023/10/24 17:42:39;;;;;;;1.80;0.65;;;;;;;12.86;79.63;99154.75;10318727;28;20058;-66
2023/10/24 17:47:41;;;;;;;2.20;1.20;;;;;;;12.90;78.82;99155.94;10292423;28;20050;-65
2023/10/24 17:52:42;;;;;;;1.55;1.10;;;;;;;12.97;78.48;99160.47;10277114;28;20133;-66
2023/10/24 17:57:44;;;;;;;1.15;0.70;;;;;;;12.89;78.50;99154.31;10311315;28;20449;-66
2023/10/24 18:02:46;;;;;;;2.15;0.80;;;;;;;12.89;78.03;99165.09;10315963;28;20049;-65
2023/10/24 18:07:48;;;;;;;2.83;1.52;;;;;;;12.80;77.92;99162.91;10333888;28;20042;-65
2023/10/24 18:12:50;;;;;;;2.97;1.35;;;;;;;12.80;77.68;99174.50;10275488;28;20053;-65
2023/10/24 18:17:54;;;;;;;5.28;2.80;;;;;;;12.72;77.33;99158.59;10299430;28;20053;-66
2023/10/24 18:22:56;;;;;;;3.13;1.80;;;;;;;12.63;76.89;99157.22;10312106;28;20153;-66
2023/10/24 18:27:57;;;;;;;4.28;1.88;;;;;;;12.51;76.88;99157.09;10314113;28;20046;-67
2023/10/24 18:32:59;;;;;;;3.17;1.45;;;;;;;12.34;77.50;99148.69;10315405;28;20058;-67
2023/10/24 18:38:00;;;;;;;3.70;1.30;;;;;;;12.23;77.05;99161.00;10317169;28;20052;-66
2023/10/24 18:43:02;;;;;;;2.85;1.75;;;;;;;12.10;77.17;99171.84;10315130;28;20244;-66
2023/10/24 18:48:07;;;;;;;2.95;1.42;;;;;;;12.02;77.16;99178.28;10290798;28;20165;-66
2023/10/24 18:53:08;;;;;;;3.30;1.80;;;;;;;11.91;77.53;99178.97;10333406;28;20069;-66
2023/10/24 18:58:10;;;;;;;4.10;2.10;;;;;;;11.75;78.01;99184.78;10325432;28;20057;-66
2023/10/24 19:03:12;;;;;;;2.83;1.70;;;;;;;11.74;77.93;99183.97;10290475;28;20197;-65
2023/10/24 19:08:13;;;;;;;6.65;3.17;;;;;;;11.78;77.63;99189.78;10317581;28;20054;-67
2023/10/24 19:13:18;;;;;;;8.90;5.15;;;;;;;11.64;77.50;99194.38;10314223;28;20591;-64
2023/10/24 19:18:20;;;;;;;7.22;3.55;;;;;;;11.59;77.33;99196.84;10315714;28;20068;-65
2023/10/24 19:23:22;;;;;;;6.20;3.33;;;;;;;11.39;77.94;99204.97;10327787;28;20053;-65
2023/10/24 19:28:24;;;;;;;7.00;3.05;;;;;;;11.39;77.47;99202.28;10313616;28;20487;-66
2023/10/24 19:33:26;;;;;;;4.40;2.75;;;;;;;11.36;77.34;99206.22;10314820;28;20073;-66
2023/10/24 19:38:28;;;;;;;6.78;3.13;;;;;;;11.32;77.17;99216.56;10311909;28;20042;-66
2023/10/24 19:43:30;;;;;;;3.60;2.42;;;;;;;11.26;77.41;99206.66;10312388;28;20046;-66
2023/10/24 19:48:33;;;;;;;10.88;4.10;;;;;;;11.21;77.78;99216.38;10309594;28;20065;-65
2023/10/24 19:53:38;;;;;;;6.22;3.63;;;;;;;11.19;77.25;99224.66;10286931;28;20088;-67
2023/10/24 19:58:42;;;;;;;8.43;5.22;;;;;;;11.14;77.15;99237.91;10299298;28;20050;-66
2023/10/24 20:03:44;;;;;;;7.93;4.55;;;;;;;11.11;77.14;99241.00;10295093;28;20065;-65
2023/10/24 20:08:47;;;;;;;7.78;3.78;;;;;;;11.06;77.01;99235.44;10325781;28;20668;-65
2023/10/24 20:13:49;;;;;;;14.05;9.05;;;;;;;11.02;76.95;99236.84;10328309;28;20093;-66
2023/10/24 20:18:51;;;;;;;12.55;9.07;;;;;;;10.97;77.39;99250.09;10311005;28;20061;-65
2023/10/24 20:23:53;;;;;;;12.15;7.85;;;;;;;10.94;77.28;99243.28;10289405;28;20577;-66
2023/10/24 20:28:58;;;;;;;9.65;6.10;;;;;;;10.91;76.92;99241.81;10311349;28;20059;-66
2023/10/24 20:34:00;;;;;;;9.05;5.10;;;;;;;10.82;76.89;99235.00;10273454;28;1033077;-66
2023/10/24 20:39:01;;;;;;;10.15;4.47;;;;;;;10.73;77.05;99238.91;10310825;28;20365;-66
2023/10/24 20:44:03;;;;;;;11.13;4.97;;;;;;;10.70;77.44;99239.31;10311983;28;20149;-65
2023/10/24 20:49:04;;;;;;;9.95;5.40;;;;;;;10.70;77.12;99242.00;10304713;28;20042;-67
2023/10/24 20:54:06;;;;;;;9.32;5.80;;;;;;;10.67;77.21;99245.09;10306836;28;20343;-66
2023/10/24 20:59:07;;;;;;;6.72;4.53;;;;;;;10.54;77.45;99245.88;10311789;28;20057;-67
2023/10/24 21:04:09;;;;;;;7.75;5.60;;;;;;;10.47;77.25;99240.50;10304919;28;20079;-66
2023/10/24 21:09:10;;;;;;;9.50;5.38;;;;;;;10.44;76.93;99257.03;10327647;28;20053;-67
2023/10/24 21:14:12;;;;;;;6.18;3.60;;;;;;;10.39;77.10;99259.50;10320148;28;20700;-67
2023/10/24 21:19:13;;;;;;;5.03;3.35;;;;;;;10.36;76.87;99253.69;10310901;28;20132;-64
2023/10/24 21:24:15;;;;;;;7.45;3.60;;;;;;;10.32;76.66;99247.91;10301440;28;20061;-67
2023/10/24 21:29:16;;;;;;;6.43;4.35;;;;;;;10.28;76.65;99255.50;10322481;28;20035;-66
2023/10/24 21:34:18;;;;;;;4.78;3.30;;;;;;;10.22;77.06;99245.56;10320115;28;20490;-66
2023/10/24 21:39:19;;;;;;;6.75;3.60;;;;;;;10.20;77.02;99244.94;10319956;28;20043;-63
2023/10/24 21:44:21;;;;;;;5.72;3.72;;;;;;;10.13;77.20;99244.91;10316998;28;20507;-64
2023/10/24 21:49:22;;;;;;;5.30;2.97;;;;;;;10.09;77.06;99235.59;10319065;28;20039;-64
2023/10/24 21:54:24;;;;;;;5.18;2.80;;;;;;;9.92;77.07;99235.09;10317276;28;20074;-66
2023/10/24 21:59:25;;;;;;;6.57;3.90;;;;;;;9.86;77.29;99246.66;10315347;28;20304;-67
2023/10/24 22:04:27;;;;;;;8.93;3.90;;;;;;;9.87;77.32;99240.25;10317835;28;20049;-66
2023/10/24 22:09:28;;;;;;;6.75;3.03;;;;;;;9.88;77.00;99239.22;10305089;28;20051;-66
2023/10/24 22:14:30;;;;;;;6.07;2.85;;;;;;;9.89;77.31;99240.03;10303053;28;20045;-66
2023/10/24 22:19:31;;;;;;;6.72;2.88;;;;;;;9.78;77.34;99244.13;10301362;28;20042;-63
2023/10/24 22:24:33;;;;;;;5.72;3.10;;;;;;;9.81;77.33;99242.91;10300980;28;20282;-63
2023/10/24 22:29:34;;;;;;;5.00;2.40;;;;;;;9.79;77.02;99242.25;10301306;28;20050;-63
2023/10/24 22:34:36;;;;;;;4.63;2.92;;;;;;;9.70;77.10;99245.13;10293916;28;20070;-63
2023/10/24 22:39:37;;;;;;;5.43;2.90;;;;;;;9.63;77.18;99246.09;10298423;28;20050;-63
2023/10/24 22:44:39;;;;;;;3.75;2.58;;;;;;;9.63;77.02;99243.41;10318672;28;20043;-64
2023/10/24 22:49:40;;;;;;;7.72;3.20;;;;;;;9.65;77.07;99250.22;10317639;28;20049;-64
2023/10/24 22:54:42;;;;;;;7.88;3.03;;;;;;;9.63;76.84;99252.28;10331844;28;20053;-66
2023/10/24 22:59:43;;;;;;;6.38;2.80;;;;;;;9.63;77.05;99248.78;10319130;28;20117;-67
2023/10/24 23:04:45;;;;;;;9.95;3.03;;;;;;;9.63;76.82;99251.47;10331961;28;20057;-67
2023/10/24 23:09:46;;;;;;;4.97;2.85;;;;;;;9.65;76.95;99257.47;10328880;28;20041;-67
2023/10/24 23:14:51;;;;;;;8.73;2.45;;;;;;;9.68;77.12;99259.78;10315309;28;20046;-67
2023/10/24 23:19:53;;;;;;;6.05;2.63;;;;;;;9.69;77.05;99256.84;10315644;28;20078;-66